sensor_id;sensor_type;location;lat;lon;timestamp;pressure;altitude;pressure_sealevel;temperature;humidity
8585;BME280;7180;52.742;11.420;2022-07-23T00:01:27;101307.03;;;15.61;92.39
8585;BME280;7180;52.742;11.420;2022-07-23T00:03:54;101329.94;;;15.62;92.47
8585;BME280;7180;52.742;11.420;2022-07-23T00:06:20;101307.56;;;15.53;92.66
8585;BME280;7180;52.742;11.420;2022-07-23T00:08:45;101313.47;;;15.44;93.22
8585;BME280;7180;52.742;11.420;2022-07-23T00:11:11;101324.75;;;15.33;94.06
8585;BME280;7180;52.742;11.420;2022-07-23T00:13:36;101349.31;;;15.49;93.88
8585;BME280;7180;52.742;11.420;2022-07-23T00:16:02;101341.78;;;15.43;94.28
8585;BME280;7180;52.742;11.420;2022-07-23T00:18:27;101356.13;;;15.53;94.28
8585;BME280;7180;52.742;11.420;2022-07-23T00:20:52;101357.41;;;15.61;93.97
8585;BME280;7180;52.742;11.420;2022-07-23T00:23:18;101351.69;;;15.67;93.60
8585;BME280;7180;52.742;11.420;2022-07-23T00:25:44;101361.47;;;15.79;93.19
8585;BME280;7180;52.742;11.420;2022-07-23T00:28:10;101334.28;;;15.63;93.20
8585;BME280;7180;52.742;11.420;2022-07-23T00:30:36;101334.06;;;15.66;93.04
8585;BME280;7180;52.742;11.420;2022-07-23T00:33:04;101334.72;;;15.69;93.53
8585;BME280;7180;52.742;11.420;2022-07-23T00:35:32;101326.47;;;15.74;93.21
8585;BME280;7180;52.742;11.420;2022-07-23T00:37:58;101346.84;;;15.86;93.41
8585;BME280;7180;52.742;11.420;2022-07-23T00:40:25;101360.44;;;16.19;92.60
8585;BME280;7180;52.742;11.420;2022-07-23T00:42:50;101332.94;;;16.20;92.38
8585;BME280;7180;52.742;11.420;2022-07-23T00:45:17;101324.44;;;16.15;91.57
8585;BME280;7180;52.742;11.420;2022-07-23T00:47:43;101332.94;;;16.20;92.74
8585;BME280;7180;52.742;11.420;2022-07-23T00:50:09;101310.44;;;15.88;92.68
8585;BME280;7180;52.742;11.420;2022-07-23T00:52:36;101313.84;;;15.77;93.32
8585;BME280;7180;52.742;11.420;2022-07-23T00:55:04;101320.50;;;15.57;94.31
8585;BME280;7180;52.742;11.420;2022-07-23T00:57:30;101336.19;;;15.48;95.24
8585;BME280;7180;52.742;11.420;2022-07-23T00:59:55;101367.63;;;15.79;94.45
8585;BME280;7180;52.742;11.420;2022-07-23T01:02:21;101335.22;;;15.62;94.41
8585;BME280;7180;52.742;11.420;2022-07-23T01:04:46;101316.75;;;15.47;94.79
8585;BME280;7180;52.742;11.420;2022-07-23T01:07:12;101320.44;;;15.32;95.64
8585;BME280;7180;52.742;11.420;2022-07-23T01:09:38;101328.22;;;15.21;95.79
8585;BME280;7180;52.742;11.420;2022-07-23T01:12:03;101348.13;;;15.14;96.74
8585;BME280;7180;52.742;11.420;2022-07-23T01:14:30;101329.19;;;14.94;97.46
8585;BME280;7180;52.742;11.420;2022-07-23T01:16:55;101356.78;;;14.90;98.24
8585;BME280;7180;52.742;11.420;2022-07-23T01:19:20;101379.88;;;15.02;98.49
8585;BME280;7180;52.742;11.420;2022-07-23T01:21:48;101366.38;;;14.78;98.83
8585;BME280;7180;52.742;11.420;2022-07-23T01:24:14;101378.78;;;14.64;99.92
8585;BME280;7180;52.742;11.420;2022-07-23T01:26:43;101378.13;;;14.46;100.00
8585;BME280;7180;52.742;11.420;2022-07-23T01:29:09;101394.59;;;14.37;100.00
8585;BME280;7180;52.742;11.420;2022-07-23T01:31:34;101407.63;;;14.40;100.00
8585;BME280;7180;52.742;11.420;2022-07-23T01:34:00;101409.31;;;14.41;100.00
8585;BME280;7180;52.742;11.420;2022-07-23T01:36:25;101405.44;;;14.32;100.00
8585;BME280;7180;52.742;11.420;2022-07-23T01:38:51;101400.91;;;14.34;100.00
8585;BME280;7180;52.742;11.420;2022-07-23T01:41:17;101403.47;;;14.36;100.00
8585;BME280;7180;52.742;11.420;2022-07-23T01:43:42;101406.28;;;14.61;100.00
8585;BME280;7180;52.742;11.420;2022-07-23T01:46:07;101384.91;;;14.78;100.00
8585;BME280;7180;52.742;11.420;2022-07-23T01:48:33;101378.94;;;14.89;100.00
8585;BME280;7180;52.742;11.420;2022-07-23T01:50:58;101354.19;;;14.76;100.00
8585;BME280;7180;52.742;11.420;2022-07-23T01:53:23;101348.44;;;14.69;100.00
8585;BME280;7180;52.742;11.420;2022-07-23T01:55:49;101360.63;;;14.72;100.00
8585;BME280;7180;52.742;11.420;2022-07-23T01:58:14;101375.47;;;14.74;100.00
8585;BME280;7180;52.742;11.420;2022-07-23T02:00:39;101370.16;;;14.74;100.00
8585;BME280;7180;52.742;11.420;2022-07-23T02:03:05;101378.28;;;14.85;100.00
8585;BME280;7180;52.742;11.420;2022-07-23T02:05:30;101355.97;;;14.75;100.00
8585;BME280;7180;52.742;11.420;2022-07-23T02:07:57;101366.38;;;14.78;100.00
8585;BME280;7180;52.742;11.420;2022-07-23T02:10:23;101357.28;;;14.82;100.00
8585;BME280;7180;52.742;11.420;2022-07-23T02:12:48;101358.53;;;14.77;100.00
8585;BME280;7180;52.742;11.420;2022-07-23T02:15:13;101362.75;;;14.93;100.00
8585;BME280;7180;52.742;11.420;2022-07-23T02:17:39;101329.50;;;14.75;100.00
8585;BME280;7180;52.742;11.420;2022-07-23T02:20:06;101317.16;;;14.62;100.00
8585;BME280;7180;52.742;11.420;2022-07-23T02:22:31;101321.97;;;14.55;100.00
8585;BME280;7180;52.742;11.420;2022-07-23T02:24:57;101364.50;;;14.66;100.00
8585;BME280;7180;52.742;11.420;2022-07-23T02:27:22;101354.22;;;14.62;100.00
8585;BME280;7180;52.742;11.420;2022-07-23T02:29:48;101359.50;;;14.62;100.00
8585;BME280;7180;52.742;11.420;2022-07-23T02:32:13;101351.66;;;14.60;100.00
8585;BME280;7180;52.742;11.420;2022-07-23T02:34:39;101354.09;;;14.63;100.00
8585;BME280;7180;52.742;11.420;2022-07-23T02:37:04;101338.03;;;14.66;100.00
8585;BME280;7180;52.742;11.420;2022-07-23T02:39:29;101343.16;;;14.69;100.00
8585;BME280;7180;52.742;11.420;2022-07-23T02:41:54;101338.03;;;14.66;100.00
8585;BME280;7180;52.742;11.420;2022-07-23T02:44:20;101342.66;;;14.63;100.00
8585;BME280;7180;52.742;11.420;2022-07-23T02:46:45;101328.59;;;14.62;100.00
8585;BME280;7180;52.742;11.420;2022-07-23T02:49:10;101321.41;;;14.50;100.00
8585;BME280;7180;52.742;11.420;2022-07-23T02:51:36;101306.69;;;14.46;100.00
8585;BME280;7180;52.742;11.420;2022-07-23T02:54:01;101308.22;;;14.36;100.00
8585;BME280;7180;52.742;11.420;2022-07-23T02:56:26;101326.38;;;14.28;100.00
8585;BME280;7180;52.742;11.420;2022-07-23T02:58:51;101335.97;;;14.15;100.00
8585;BME280;7180;52.742;11.420;2022-07-23T03:01:17;101363.56;;;14.39;100.00
8585;BME280;7180;52.742;11.420;2022-07-23T03:03:42;101355.81;;;14.50;100.00
8585;BME280;7180;52.742;11.420;2022-07-23T03:06:07;101343.19;;;14.27;100.00
8585;BME280;7180;52.742;11.420;2022-07-23T03:08:33;101353.81;;;14.25;100.00
8585;BME280;7180;52.742;11.420;2022-07-23T03:10:58;101340.31;;;14.02;100.00
8585;BME280;7180;52.742;11.420;2022-07-23T03:13:23;101339.91;;;13.94;100.00
8585;BME280;7180;52.742;11.420;2022-07-23T03:15:49;101353.88;;;13.96;100.00
8585;BME280;7180;52.742;11.420;2022-07-23T03:18:14;101370.41;;;13.99;100.00
8585;BME280;7180;52.742;11.420;2022-07-23T03:20:39;101381.66;;;14.03;100.00
8585;BME280;7180;52.742;11.420;2022-07-23T03:23:05;101360.78;;;13.98;100.00
8585;BME280;7180;52.742;11.420;2022-07-23T03:25:30;101367.94;;;13.82;100.00
8585;BME280;7180;52.742;11.420;2022-07-23T03:27:56;101365.75;;;13.75;100.00
8585;BME280;7180;52.742;11.420;2022-07-23T03:30:21;101374.78;;;13.71;100.00
8585;BME280;7180;52.742;11.420;2022-07-23T03:32:46;101383.00;;;13.66;100.00
8585;BME280;7180;52.742;11.420;2022-07-23T03:35:12;101380.63;;;13.62;100.00
8585;BME280;7180;52.742;11.420;2022-07-23T03:37:37;101404.50;;;13.90;100.00
8585;BME280;7180;52.742;11.420;2022-07-23T03:40:03;101384.38;;;13.87;100.00
8585;BME280;7180;52.742;11.420;2022-07-23T03:42:28;101382.91;;;14.11;100.00
8585;BME280;7180;52.742;11.420;2022-07-23T03:44:53;101384.72;;;14.39;100.00
8585;BME280;7180;52.742;11.420;2022-07-23T03:47:19;101371.50;;;14.39;100.00
8585;BME280;7180;52.742;11.420;2022-07-23T03:49:47;101365.81;;;14.59;100.00
8585;BME280;7180;52.742;11.420;2022-07-23T03:52:12;101327.56;;;14.50;100.00
8585;BME280;7180;52.742;11.420;2022-07-23T03:54:38;101321.81;;;14.44;100.00
8585;BME280;7180;52.742;11.420;2022-07-23T03:57:03;101317.47;;;14.43;100.00
8585;BME280;7180;52.742;11.420;2022-07-23T03:59:28;101348.34;;;14.71;100.00
8585;BME280;7180;52.742;11.420;2022-07-23T04:01:53;101354.94;;;14.78;100.00
8585;BME280;7180;52.742;11.420;2022-07-23T04:04:19;101341.38;;;14.82;100.00
8585;BME280;7180;52.742;11.420;2022-07-23T04:06:44;101331.22;;;14.76;100.00
8585;BME280;7180;52.742;11.420;2022-07-23T04:09:09;101322.03;;;14.82;100.00
8585;BME280;7180;52.742;11.420;2022-07-23T04:11:34;101334.53;;;15.06;100.00
8585;BME280;7180;52.742;11.420;2022-07-23T04:14:00;101314.44;;;15.16;99.41
8585;BME280;7180;52.742;11.420;2022-07-23T04:16:25;101310.94;;;14.89;100.00
8585;BME280;7180;52.742;11.420;2022-07-23T04:18:50;101308.91;;;14.80;100.00
8585;BME280;7180;52.742;11.420;2022-07-23T04:21:16;101305.72;;;14.61;100.00
8585;BME280;7180;52.742;11.420;2022-07-23T04:23:41;101320.84;;;14.59;100.00
8585;BME280;7180;52.742;11.420;2022-07-23T04:26:06;101343.56;;;14.90;100.00
8585;BME280;7180;52.742;11.420;2022-07-23T04:28:31;101310.97;;;14.75;100.00
8585;BME280;7180;52.742;11.420;2022-07-23T04:30:57;101333.44;;;14.96;100.00
8585;BME280;7180;52.742;11.420;2022-07-23T04:33:22;101302.69;;;14.67;100.00
8585;BME280;7180;52.742;11.420;2022-07-23T04:35:48;101313.44;;;14.78;100.00
8585;BME280;7180;52.742;11.420;2022-07-23T04:38:13;101311.47;;;14.68;100.00
8585;BME280;7180;52.742;11.420;2022-07-23T04:40:38;101358.63;;;14.89;100.00
8585;BME280;7180;52.742;11.420;2022-07-23T04:43:03;101370.63;;;15.21;100.00
8585;BME280;7180;52.742;11.420;2022-07-23T04:45:30;101359.91;;;15.49;99.34
8585;BME280;7180;52.742;11.420;2022-07-23T04:47:55;101318.78;;;15.17;98.64
8585;BME280;7180;52.742;11.420;2022-07-23T04:50:21;101321.44;;;15.17;99.70
8585;BME280;7180;52.742;11.420;2022-07-23T04:52:47;101318.47;;;15.22;99.75
8585;BME280;7180;52.742;11.420;2022-07-23T04:55:13;101344.81;;;15.37;99.81
8585;BME280;7180;52.742;11.420;2022-07-23T04:57:39;101367.78;;;15.64;99.22
8585;BME280;7180;52.742;11.420;2022-07-23T05:00:04;101360.41;;;15.81;97.61
8585;BME280;7180;52.742;11.420;2022-07-23T05:02:30;101322.03;;;15.87;96.88
8585;BME280;7180;52.742;11.420;2022-07-23T05:04:55;101318.41;;;15.88;95.97
8585;BME280;7180;52.742;11.420;2022-07-23T05:07:20;101312.13;;;16.01;94.88
8585;BME280;7180;52.742;11.420;2022-07-23T05:09:46;101306.94;;;16.00;94.82
8585;BME280;7180;52.742;11.420;2022-07-23T05:12:11;101312.69;;;15.94;95.12
8585;BME280;7180;52.742;11.420;2022-07-23T05:14:36;101303.25;;;15.90;95.57
8585;BME280;7180;52.742;11.420;2022-07-23T05:17:02;101295.28;;;15.77;95.20
8585;BME280;7180;52.742;11.420;2022-07-23T05:19:27;101300.38;;;15.68;95.74
8585;BME280;7180;52.742;11.420;2022-07-23T05:21:52;101314.75;;;15.51;97.37
8585;BME280;7180;52.742;11.420;2022-07-23T05:24:18;101348.28;;;15.52;98.78
8585;BME280;7180;52.742;11.420;2022-07-23T05:26:43;101379.59;;;15.60;99.05
8585;BME280;7180;52.742;11.420;2022-07-23T05:29:08;101380.28;;;15.62;99.32
8585;BME280;7180;52.742;11.420;2022-07-23T05:31:34;101391.69;;;15.76;99.21
8585;BME280;7180;52.742;11.420;2022-07-23T05:33:59;101386.38;;;15.76;99.13
8585;BME280;7180;52.742;11.420;2022-07-23T05:36:25;101388.38;;;15.73;99.99
8585;BME280;7180;52.742;11.420;2022-07-23T05:38:51;101391.75;;;15.62;100.00
8585;BME280;7180;52.742;11.420;2022-07-23T05:41:16;101399.75;;;15.75;100.00
8585;BME280;7180;52.742;11.420;2022-07-23T05:43:42;101392.88;;;15.85;100.00
8585;BME280;7180;52.742;11.420;2022-07-23T05:46:07;101401.16;;;15.93;100.00
8585;BME280;7180;52.742;11.420;2022-07-23T05:48:32;101400.13;;;16.08;100.00
8585;BME280;7180;52.742;11.420;2022-07-23T05:50:58;101386.53;;;16.25;99.25
8585;BME280;7180;52.742;11.420;2022-07-23T05:53:23;101362.75;;;16.36;98.85
8585;BME280;7180;52.742;11.420;2022-07-23T05:55:49;101321.81;;;16.15;98.33
8585;BME280;7180;52.742;11.420;2022-07-23T05:58:14;101352.47;;;16.56;97.71
8585;BME280;7180;52.742;11.420;2022-07-23T06:00:39;101334.53;;;16.47;97.31
8585;BME280;7180;52.742;11.420;2022-07-23T06:03:05;101326.25;;;16.27;98.31
8585;BME280;7180;52.742;11.420;2022-07-23T06:05:30;101360.97;;;16.49;98.93
8585;BME280;7180;52.742;11.420;2022-07-23T06:07:55;101358.09;;;16.52;97.98
8585;BME280;7180;52.742;11.420;2022-07-23T06:10:20;101383.03;;;17.11;97.20
8585;BME280;7180;52.742;11.420;2022-07-23T06:12:46;101334.25;;;16.99;95.85
8585;BME280;7180;52.742;11.420;2022-07-23T06:15:11;101325.34;;;17.00;95.05
8585;BME280;7180;52.742;11.420;2022-07-23T06:17:38;101310.03;;;17.27;92.32
8585;BME280;7180;52.742;11.420;2022-07-23T06:20:07;101311.97;;;17.60;89.51
8585;BME280;7180;52.742;11.420;2022-07-23T06:22:32;101291.34;;;17.86;87.70
8585;BME280;7180;52.742;11.420;2022-07-23T06:24:58;101305.88;;;18.04;88.42
8585;BME280;7180;52.742;11.420;2022-07-23T06:27:23;101334.22;;;18.60;88.18
8585;BME280;7180;52.742;11.420;2022-07-23T06:29:48;101300.56;;;18.70;86.73
8585;BME280;7180;52.742;11.420;2022-07-23T06:32:14;101287.31;;;18.80;84.66
8585;BME280;7180;52.742;11.420;2022-07-23T06:34:39;101287.38;;;19.00;83.92
8585;BME280;7180;52.742;11.420;2022-07-23T06:37:04;101280.91;;;19.14;80.92
8585;BME280;7180;52.742;11.420;2022-07-23T06:39:30;101294.75;;;19.81;79.40
8585;BME280;7180;52.742;11.420;2022-07-23T06:41:55;101261.13;;;19.69;79.73
8585;BME280;7180;52.742;11.420;2022-07-23T06:44:20;101247.88;;;19.88;78.71
8585;BME280;7180;52.742;11.420;2022-07-23T06:46:46;101247.88;;;19.88;78.58
8585;BME280;7180;52.742;11.420;2022-07-23T06:49:11;101217.72;;;19.67;78.29
8585;BME280;7180;52.742;11.420;2022-07-23T06:51:36;101249.22;;;19.73;79.12
8585;BME280;7180;52.742;11.420;2022-07-23T06:54:02;101257.13;;;20.14;78.20
8585;BME280;7180;52.742;11.420;2022-07-23T06:56:27;101257.31;;;20.52;74.12
8585;BME280;7180;52.742;11.420;2022-07-23T06:58:53;101285.56;;;21.23;72.16
8585;BME280;7180;52.742;11.420;2022-07-23T07:01:18;101260.91;;;21.38;70.75
8585;BME280;7180;52.742;11.420;2022-07-23T07:03:44;101321.22;;;22.44;69.57
8585;BME280;7180;52.742;11.420;2022-07-23T07:06:09;101239.16;;;22.71;66.64
8585;BME280;7180;52.742;11.420;2022-07-23T07:08:35;101240.25;;;23.56;62.88
8585;BME280;7180;52.742;11.420;2022-07-23T07:11:00;101205.41;;;24.23;60.24
8585;BME280;7180;52.742;11.420;2022-07-23T07:13:25;101212.97;;;24.94;59.67
8585;BME280;7180;52.742;11.420;2022-07-23T07:15:51;101193.72;;;24.48;60.65
8585;BME280;7180;52.742;11.420;2022-07-23T07:18:16;101212.28;;;25.72;56.91
8585;BME280;7180;52.742;11.420;2022-07-23T07:20:41;101154.66;;;26.50;55.05
8585;BME280;7180;52.742;11.420;2022-07-23T07:23:06;101159.00;;;25.43;57.49
8585;BME280;7180;52.742;11.420;2022-07-23T07:25:32;101140.31;;;26.05;55.49
8585;BME280;7180;52.742;11.420;2022-07-23T07:27:57;101046.50;;;24.99;56.69
8585;BME280;7180;52.742;11.420;2022-07-23T07:30:22;101116.44;;;25.23;57.58
8585;BME280;7180;52.742;11.420;2022-07-23T07:32:48;101143.03;;;24.94;60.47
8585;BME280;7180;52.742;11.420;2022-07-23T07:35:13;101100.72;;;25.58;57.66
8585;BME280;7180;52.742;11.420;2022-07-23T07:37:38;101047.38;;;24.51;58.90
8585;BME280;7180;52.742;11.420;2022-07-23T07:40:04;101135.81;;;25.18;58.85
8585;BME280;7180;52.742;11.420;2022-07-23T07:42:29;101096.09;;;25.04;59.78
8585;BME280;7180;52.742;11.420;2022-07-23T07:44:55;101009.94;;;24.33;58.82
8585;BME280;7180;52.742;11.420;2022-07-23T07:47:20;100995.66;;;23.25;61.31
8585;BME280;7180;52.742;11.420;2022-07-23T07:49:45;101025.50;;;22.71;63.61
8585;BME280;7180;52.742;11.420;2022-07-23T07:52:11;101067.59;;;22.53;64.38
8585;BME280;7180;52.742;11.420;2022-07-23T07:54:36;101038.03;;;22.10;64.25
8585;BME280;7180;52.742;11.420;2022-07-23T07:57:02;101137.88;;;22.82;64.40
8585;BME280;7180;52.742;11.420;2022-07-23T07:59:27;101137.88;;;22.82;64.79
8585;BME280;7180;52.742;11.420;2022-07-23T08:01:53;101127.28;;;23.24;62.53
8585;BME280;7180;52.742;11.420;2022-07-23T08:04:18;101109.38;;;22.81;63.80
8585;BME280;7180;52.742;11.420;2022-07-23T08:06:43;101092.78;;;23.03;62.46
8585;BME280;7180;52.742;11.420;2022-07-23T08:09:09;101052.72;;;22.41;62.99
8585;BME280;7180;52.742;11.420;2022-07-23T08:11:34;101111.84;;;22.57;63.47
8585;BME280;7180;52.742;11.420;2022-07-23T08:13:59;101122.56;;;22.57;63.98
8585;BME280;7180;52.742;11.420;2022-07-23T08:16:25;101047.38;;;22.06;64.35
8585;BME280;7180;52.742;11.420;2022-07-23T08:18:50;101059.28;;;21.94;64.40
8585;BME280;7180;52.742;11.420;2022-07-23T08:21:15;101097.13;;;22.26;63.73
8585;BME280;7180;52.742;11.420;2022-07-23T08:23:40;101072.28;;;21.89;64.58
8585;BME280;7180;52.742;11.420;2022-07-23T08:26:06;101071.09;;;21.46;65.45
8585;BME280;7180;52.742;11.420;2022-07-23T08:28:31;101092.66;;;21.35;66.61
8585;BME280;7180;52.742;11.420;2022-07-23T08:31:00;101111.47;;;21.53;66.08
8585;BME280;7180;52.742;11.420;2022-07-23T08:33:25;101123.97;;;21.99;65.38
8585;BME280;7180;52.742;11.420;2022-07-23T08:35:51;101103.09;;;22.20;64.04
8585;BME280;7180;52.742;11.420;2022-07-23T08:38:20;101104.09;;;22.36;63.54
8585;BME280;7180;52.742;11.420;2022-07-23T08:40:51;101132.47;;;22.56;63.59
8585;BME280;7180;52.742;11.420;2022-07-23T08:43:25;101131.69;;;22.82;62.35
8585;BME280;7180;52.742;11.420;2022-07-23T08:45:54;101119.53;;;22.95;61.58
8585;BME280;7180;52.742;11.420;2022-07-23T08:48:25;101089.63;;;22.64;61.47
8585;BME280;7180;52.742;11.420;2022-07-23T08:50:54;101083.84;;;22.69;60.98
8585;BME280;7180;52.742;11.420;2022-07-23T08:53:21;101055.84;;;22.54;59.80
8585;BME280;7180;52.742;11.420;2022-07-23T08:55:48;101111.06;;;22.82;61.40
8585;BME280;7180;52.742;11.420;2022-07-23T08:58:14;101077.00;;;23.00;60.46
8585;BME280;7180;52.742;11.420;2022-07-23T09:00:40;101050.84;;;22.94;60.44
8585;BME280;7180;52.742;11.420;2022-07-23T09:03:06;101067.53;;;22.88;60.67
8585;BME280;7180;52.742;11.420;2022-07-23T09:05:31;101020.31;;;22.70;59.83
8585;BME280;7180;52.742;11.420;2022-07-23T09:08:14;101068.16;;;22.82;59.91
8585;BME280;7180;52.742;11.420;2022-07-23T09:13:37;101021.72;;;23.07;59.12
8585;BME280;7180;52.742;11.420;2022-07-23T09:16:14;101062.25;;;22.96;60.43
8585;BME280;7180;52.742;11.420;2022-07-23T09:18:49;101047.66;;;22.73;60.49
8585;BME280;7180;52.742;11.420;2022-07-23T09:21:24;100984.94;;;21.88;61.44
8585;BME280;7180;52.742;11.420;2022-07-23T09:23:54;101017.44;;;22.10;61.31
8585;BME280;7180;52.742;11.420;2022-07-23T09:26:22;101020.22;;;22.18;60.47
8585;BME280;7180;52.742;11.420;2022-07-23T09:29:04;100975.75;;;22.08;59.82
8585;BME280;7180;52.742;11.420;2022-07-23T09:31:33;101054.88;;;22.55;60.11
8585;BME280;7180;52.742;11.420;2022-07-23T09:34:07;101111.44;;;23.30;59.54
8585;BME280;7180;52.742;11.420;2022-07-23T09:36:33;101015.28;;;23.26;58.06
8585;BME280;7180;52.742;11.420;2022-07-23T09:38:58;101019.38;;;23.30;56.89
8585;BME280;7180;52.742;11.420;2022-07-23T09:41:23;101076.78;;;23.87;56.67
8585;BME280;7180;52.742;11.420;2022-07-23T09:43:54;101041.59;;;23.56;58.08
8585;BME280;7180;52.742;11.420;2022-07-23T09:46:25;100991.38;;;23.32;57.67
8585;BME280;7180;52.742;11.420;2022-07-23T09:48:52;101004.38;;;23.19;58.31
8585;BME280;7180;52.742;11.420;2022-07-23T09:51:18;100932.44;;;23.23;56.58
8585;BME280;7180;52.742;11.420;2022-07-23T09:54:02;100984.09;;;23.25;58.06
8585;BME280;7180;52.742;11.420;2022-07-23T09:56:28;101030.13;;;23.38;58.68
8585;BME280;7180;52.742;11.420;2022-07-23T09:58:54;100949.00;;;23.10;57.88
8585;BME280;7180;52.742;11.420;2022-07-23T10:01:31;100919.47;;;22.69;58.10
8585;BME280;7180;52.742;11.420;2022-07-23T10:03:58;101021.69;;;22.99;58.66
8585;BME280;7180;52.742;11.420;2022-07-23T10:06:23;100962.34;;;22.69;58.46
8585;BME280;7180;52.742;11.420;2022-07-23T10:08:50;100990.38;;;22.74;58.81
8585;BME280;7180;52.742;11.420;2022-07-23T10:11:16;100941.50;;;22.37;58.90
8585;BME280;7180;52.742;11.420;2022-07-23T10:13:42;100968.56;;;22.26;59.77
8585;BME280;7180;52.742;11.420;2022-07-23T10:16:14;100991.03;;;22.33;59.95
8585;BME280;7180;52.742;11.420;2022-07-23T10:18:39;101007.06;;;22.68;58.55
8585;BME280;7180;52.742;11.420;2022-07-23T10:21:07;100982.44;;;22.98;56.85
8585;BME280;7180;52.742;11.420;2022-07-23T10:23:37;100929.41;;;22.76;56.75
8585;BME280;7180;52.742;11.420;2022-07-23T10:26:17;100941.50;;;22.88;56.31
8585;BME280;7180;52.742;11.420;2022-07-23T10:31:45;101006.81;;;23.38;56.46
8585;BME280;7180;52.742;11.420;2022-07-23T10:34:29;100956.38;;;23.50;55.31
8585;BME280;7180;52.742;11.420;2022-07-23T10:37:07;100947.63;;;23.40;55.79
8585;BME280;7180;52.742;11.420;2022-07-23T10:39:37;100908.38;;;22.97;56.47
8585;BME280;7180;52.742;11.420;2022-07-23T10:42:09;100900.88;;;22.75;56.49
8585;BME280;7180;52.742;11.420;2022-07-23T10:44:43;100952.72;;;22.84;57.36
8585;BME280;7180;52.742;11.420;2022-07-23T10:47:10;100939.25;;;23.01;56.49
8585;BME280;7180;52.742;11.420;2022-07-23T10:49:48;100968.78;;;23.43;55.93
8585;BME280;7180;52.742;11.420;2022-07-23T10:57:25;100872.34;;;22.58;57.20
8585;BME280;7180;52.742;11.420;2022-07-23T11:00:12;100886.44;;;22.60;57.27
8585;BME280;7180;52.742;11.420;2022-07-23T11:02:43;100936.41;;;22.69;57.59
8585;BME280;7180;52.742;11.420;2022-07-23T11:05:10;100911.88;;;22.64;57.10
8585;BME280;7180;52.742;11.420;2022-07-23T11:08:09;100948.75;;;22.96;56.02
8585;BME280;7180;52.742;11.420;2022-07-23T11:10:37;100909.56;;;23.03;55.68
8585;BME280;7180;52.742;11.420;2022-07-23T11:34:32;100946.03;;;23.21;55.80
8585;BME280;7180;52.742;11.420;2022-07-23T11:36:59;100887.19;;;23.28;54.63
8585;BME280;7180;52.742;11.420;2022-07-23T11:39:27;100949.53;;;23.55;54.75
8585;BME280;7180;52.742;11.420;2022-07-23T11:41:53;100930.94;;;23.70;54.21
8585;BME280;7180;52.742;11.420;2022-07-23T11:44:29;100960.03;;;24.07;53.75
8585;BME280;7180;52.742;11.420;2022-07-23T11:47:15;100878.75;;;24.13;52.59
8585;BME280;7180;52.742;11.420;2022-07-23T11:49:55;100900.59;;;24.26;52.85
8585;BME280;7180;52.742;11.420;2022-07-23T11:52:22;100794.34;;;23.59;53.22
8585;BME280;7180;52.742;11.420;2022-07-23T11:54:53;100890.16;;;23.91;53.51
8585;BME280;7180;52.742;11.420;2022-07-23T11:57:20;100865.63;;;23.53;54.59
8585;BME280;7180;52.742;11.420;2022-07-23T11:59:53;100888.47;;;23.82;53.42
8585;BME280;7180;52.742;11.420;2022-07-23T12:02:20;100852.72;;;23.65;53.67
8585;BME280;7180;52.742;11.420;2022-07-23T12:04:48;100847.03;;;23.68;52.95
8585;BME280;7180;52.742;11.420;2022-07-23T12:07:31;100822.03;;;23.76;52.56
8585;BME280;7180;52.742;11.420;2022-07-23T12:09:58;100898.25;;;24.15;52.37
8585;BME280;7180;52.742;11.420;2022-07-23T12:12:24;100914.59;;;24.68;51.34
8585;BME280;7180;52.742;11.420;2022-07-23T12:14:58;100901.69;;;25.10;50.20
8585;BME280;7180;52.742;11.420;2022-07-23T12:17:30;100854.00;;;24.96;50.62
8585;BME280;7180;52.742;11.420;2022-07-23T12:19:57;100825.69;;;24.78;50.47
8585;BME280;7180;52.742;11.420;2022-07-23T12:22:24;100883.22;;;24.52;52.38
8585;BME280;7180;52.742;11.420;2022-07-23T12:24:57;100942.66;;;24.82;52.81
8585;BME280;7180;52.742;11.420;2022-07-23T12:27:23;100885.63;;;24.94;50.80
8585;BME280;7180;52.742;11.420;2022-07-23T12:29:49;100828.50;;;24.84;50.76
8585;BME280;7180;52.742;11.420;2022-07-23T12:32:23;100855.34;;;25.00;50.29
8585;BME280;7180;52.742;11.420;2022-07-23T12:35:10;100841.94;;;24.84;50.99
8585;BME280;7180;52.742;11.420;2022-07-23T12:37:46;100803.97;;;24.87;50.80
8585;BME280;7180;52.742;11.420;2022-07-23T12:40:42;100830.69;;;24.81;51.18
8585;BME280;7180;52.742;11.420;2022-07-23T12:43:10;100798.78;;;24.23;52.14
8585;BME280;7180;52.742;11.420;2022-07-23T12:48:16;100733.78;;;23.48;52.85
8585;BME280;7180;52.742;11.420;2022-07-23T12:53:22;100774.03;;;23.73;52.46
8585;BME280;7180;52.742;11.420;2022-07-23T12:55:49;100821.69;;;24.03;51.76
8585;BME280;7180;52.742;11.420;2022-07-23T12:58:17;100875.34;;;24.43;52.16
8585;BME280;7180;52.742;11.420;2022-07-23T13:00:57;100830.22;;;24.14;52.46
8585;BME280;7180;52.742;11.420;2022-07-23T13:03:28;100830.75;;;24.10;52.42
8585;BME280;7180;52.742;11.420;2022-07-23T13:05:54;100794.13;;;23.93;52.42
8585;BME280;7180;52.742;11.420;2022-07-23T13:08:20;100866.00;;;23.99;52.69
8585;BME280;7180;52.742;11.420;2022-07-23T13:10:45;100780.09;;;23.42;53.16
8585;BME280;7180;52.742;11.420;2022-07-23T13:13:14;100840.47;;;23.71;53.24
8585;BME280;7180;52.742;11.420;2022-07-23T13:15:39;100806.44;;;23.63;52.82
8585;BME280;7180;52.742;11.420;2022-07-23T13:18:04;100793.84;;;23.39;53.14
8585;BME280;7180;52.742;11.420;2022-07-23T13:20:31;100822.69;;;23.37;53.34
8585;BME280;7180;52.742;11.420;2022-07-23T13:22:57;100911.28;;;23.78;53.85
8585;BME280;7180;52.742;11.420;2022-07-23T13:25:23;100865.31;;;23.97;52.07
8585;BME280;7180;52.742;11.420;2022-07-23T13:27:48;100922.72;;;24.36;52.26
8585;BME280;7180;52.742;11.420;2022-07-23T13:30:13;100936.66;;;24.47;52.53
8585;BME280;7180;52.742;11.420;2022-07-23T13:32:40;100770.31;;;24.06;51.00
8585;BME280;7180;52.742;11.420;2022-07-23T13:35:06;100834.25;;;24.18;51.03